createdAt,value
2017-03-13T00:00:56.328Z,994.91
2017-03-13T00:01:56.353Z,994.93
2017-03-13T00:02:56.381Z,994.97
2017-03-13T00:03:56.411Z,995
2017-03-13T00:04:56.439Z,995
2017-03-13T00:05:56.464Z,994.98
2017-03-13T00:06:56.492Z,995.02
2017-03-13T00:07:56.521Z,995.01
2017-03-13T00:08:56.550Z,995.06
2017-03-13T00:09:56.579Z,995.06
2017-03-13T00:10:56.604Z,995.06
2017-03-13T00:11:56.629Z,995.02
2017-03-13T00:12:56.661Z,995.06
2017-03-13T00:13:56.690Z,995.07
2017-03-13T00:14:56.715Z,995.06
2017-03-13T00:15:56.738Z,995.08
2017-03-13T00:16:56.772Z,995.14
2017-03-13T00:17:56.797Z,995.18
2017-03-13T00:18:56.829Z,995.17
2017-03-13T00:19:56.858Z,995.17
2017-03-13T00:20:56.883Z,995.16
2017-03-13T00:21:56.911Z,995.15
2017-03-13T00:22:56.940Z,995.14
2017-03-13T00:23:56.970Z,995.11
2017-03-13T00:24:56.994Z,995.14
2017-03-13T00:25:57.023Z,995.14
2017-03-13T00:26:57.052Z,995.18
2017-03-13T00:27:57.086Z,995.21
2017-03-13T00:28:57.109Z,995.21
2017-03-13T00:29:57.135Z,995.26
2017-03-13T00:30:57.444Z,995.23
2017-03-13T00:31:57.192Z,995.26
2017-03-13T00:32:57.220Z,995.25
2017-03-13T00:33:57.246Z,995.3
2017-03-13T00:34:57.273Z,995.28
2017-03-13T00:35:57.554Z,995.27
2017-03-13T00:36:57.331Z,995.29
2017-03-13T00:37:57.356Z,995.32
2017-03-13T00:38:57.385Z,995.38
2017-03-13T00:39:57.414Z,995.38
2017-03-13T00:40:57.694Z,995.39
2017-03-13T00:41:57.471Z,995.39
2017-03-13T00:42:57.497Z,995.41
2017-03-13T00:43:57.525Z,995.39
2017-03-13T00:44:57.553Z,995.42
2017-03-13T00:45:57.829Z,995.4
2017-03-13T00:46:57.606Z,995.44
2017-03-13T00:47:57.635Z,995.51
2017-03-13T00:48:57.664Z,995.46
2017-03-13T00:49:57.689Z,995.5
2017-03-13T00:50:57.718Z,995.49
2017-03-13T00:51:57.747Z,995.5
2017-03-13T00:52:57.772Z,995.51
2017-03-13T00:53:57.800Z,995.53
2017-03-13T00:54:57.829Z,995.54
2017-03-13T00:55:57.858Z,995.51
2017-03-13T00:56:57.886Z,995.55
2017-03-13T00:57:57.907Z,995.57
2017-03-13T00:58:57.939Z,995.57
2017-03-13T00:59:57.968Z,995.56
2017-03-13T01:00:57.993Z,995.56
2017-03-13T01:01:58.022Z,995.58
2017-03-13T01:02:58.047Z,995.56
2017-03-13T01:03:58.080Z,995.55
2017-03-13T01:04:58.104Z,995.56
2017-03-13T01:05:58.133Z,995.53
2017-03-13T01:06:58.162Z,995.55
2017-03-13T01:07:58.186Z,995.52
2017-03-13T01:08:58.215Z,995.52
2017-03-13T01:09:58.246Z,995.52
2017-03-13T01:10:58.273Z,995.53
2017-03-13T01:11:58.300Z,995.55
2017-03-13T01:12:58.326Z,995.59
2017-03-13T01:13:58.355Z,995.57
2017-03-13T01:14:58.379Z,995.58
2017-03-13T01:15:58.410Z,995.58
2017-03-13T01:16:58.438Z,995.6
2017-03-13T01:17:58.462Z,995.62
2017-03-13T01:18:58.495Z,995.71
2017-03-13T01:19:58.520Z,995.71
2017-03-13T01:20:58.548Z,995.69
2017-03-13T01:21:58.577Z,995.73
2017-03-13T01:22:58.606Z,995.71
2017-03-13T01:23:58.632Z,995.73
2017-03-13T01:24:58.656Z,995.72
2017-03-13T01:25:58.688Z,995.76
2017-03-13T01:26:58.712Z,995.7
2017-03-13T01:27:58.738Z,995.74
2017-03-13T01:28:58.771Z,995.72
2017-03-13T01:29:58.793Z,995.75
2017-03-13T01:30:58.825Z,995.75
2017-03-13T01:31:58.852Z,995.79
2017-03-13T01:32:58.878Z,995.76
2017-03-13T01:33:58.906Z,995.84
2017-03-13T01:34:58.936Z,995.81
2017-03-13T01:35:58.967Z,995.81
2017-03-13T01:36:58.992Z,995.83
2017-03-13T01:37:59.017Z,995.83
2017-03-13T01:38:59.046Z,995.83
2017-03-13T01:39:59.079Z,995.81
2017-03-13T01:40:59.100Z,995.86
2017-03-13T01:41:59.128Z,995.84
2017-03-13T01:42:59.152Z,995.89
2017-03-13T01:43:59.185Z,995.85
2017-03-13T01:44:59.210Z,995.88
2017-03-13T01:45:59.239Z,995.94
2017-03-13T01:46:59.268Z,995.95
2017-03-13T01:47:59.289Z,995.93
2017-03-13T01:48:59.321Z,995.98
2017-03-13T01:49:59.350Z,995.99
2017-03-13T01:50:59.375Z,996.01
2017-03-13T01:51:59.403Z,996.03
2017-03-13T01:52:59.428Z,996
2017-03-13T01:53:59.457Z,995.99
2017-03-13T01:54:59.486Z,996.03
2017-03-13T01:55:59.515Z,996.01
2017-03-13T01:56:59.539Z,996.01
2017-03-13T01:57:59.571Z,996.05
2017-03-13T01:58:59.596Z,996.02
2017-03-13T01:59:59.626Z,996.02
2017-03-13T02:00:59.650Z,996.09
2017-03-13T02:01:59.679Z,996.07
2017-03-13T02:02:59.704Z,996.06
2017-03-13T02:03:59.733Z,996.07
2017-03-13T02:04:59.761Z,996.1
2017-03-13T02:05:59.790Z,996.09
2017-03-13T02:06:59.814Z,996.11
2017-03-13T02:07:59.847Z,996.11
2017-03-13T02:08:59.873Z,996.1
2017-03-13T02:09:59.896Z,996.12
2017-03-13T02:10:59.925Z,996.15
2017-03-13T02:12:00.201Z,996.1
2017-03-13T02:12:59.982Z,996.1
2017-03-13T02:14:00.008Z,996.14
2017-03-13T02:15:00.036Z,996.14
2017-03-13T02:16:00.065Z,996.13
2017-03-13T02:17:00.341Z,996.1
2017-03-13T02:18:00.119Z,996.12
2017-03-13T02:19:00.143Z,996.13
2017-03-13T02:20:00.171Z,996.07
2017-03-13T02:21:00.200Z,996.13
2017-03-13T02:22:00.477Z,996.14
2017-03-13T02:23:00.251Z,996.19
2017-03-13T02:24:00.284Z,996.15
2017-03-13T02:25:00.304Z,996.18
2017-03-13T02:26:00.337Z,996.17
2017-03-13T02:27:00.618Z,996.17
2017-03-13T02:28:00.401Z,996.21
2017-03-13T02:29:00.419Z,996.26
2017-03-13T02:30:00.444Z,996.26
2017-03-13T02:31:00.493Z,996.3
2017-03-13T02:32:00.750Z,996.28
2017-03-13T02:33:00.530Z,996.25
2017-03-13T02:34:00.555Z,996.27
2017-03-13T02:35:00.583Z,996.24
2017-03-13T02:36:00.607Z,996.24
2017-03-13T02:37:00.889Z,996.21
2017-03-13T02:38:00.666Z,996.19
2017-03-13T02:39:00.695Z,996.24
2017-03-13T02:40:00.719Z,996.22
2017-03-13T02:41:00.751Z,996.24
2017-03-13T02:42:00.776Z,996.26
2017-03-13T02:43:00.802Z,996.25
2017-03-13T02:44:00.827Z,996.29
2017-03-13T02:45:00.859Z,996.28
2017-03-13T02:46:00.880Z,996.27
2017-03-13T02:47:00.910Z,996.25
2017-03-13T02:48:00.938Z,996.27
2017-03-13T02:49:00.970Z,996.29
2017-03-13T02:50:00.994Z,996.27
2017-03-13T02:51:01.020Z,996.26
2017-03-13T02:52:01.049Z,996.27
2017-03-13T02:53:01.077Z,996.31
2017-03-13T02:54:01.102Z,996.31
2017-03-13T02:55:01.131Z,996.32
2017-03-13T02:56:01.159Z,996.28
2017-03-13T02:57:01.184Z,996.28
2017-03-13T02:58:01.213Z,996.31
2017-03-13T02:59:01.238Z,996.28
2017-03-13T03:00:01.264Z,996.35
2017-03-13T03:01:01.294Z,996.36
2017-03-13T03:02:01.320Z,996.39
2017-03-13T03:03:01.349Z,996.39
2017-03-13T03:04:01.378Z,996.34
2017-03-13T03:05:01.403Z,996.41
2017-03-13T03:06:01.431Z,996.43
2017-03-13T03:07:01.457Z,996.4
2017-03-13T03:08:01.484Z,996.44
2017-03-13T03:09:01.509Z,996.49
2017-03-13T03:10:01.538Z,996.45
2017-03-13T03:11:01.566Z,996.46
2017-03-13T03:12:01.596Z,996.47
2017-03-13T03:13:01.621Z,996.5
2017-03-13T03:14:01.644Z,996.53
2017-03-13T03:15:01.678Z,996.53
2017-03-13T03:16:01.706Z,996.56
2017-03-13T03:17:01.731Z,996.52
2017-03-13T03:18:01.756Z,996.56
2017-03-13T03:19:01.780Z,996.54
2017-03-13T03:20:01.809Z,996.58
2017-03-13T03:21:01.838Z,996.6
2017-03-13T03:22:01.867Z,996.58
2017-03-13T03:23:01.890Z,996.62
2017-03-13T03:24:01.919Z,996.59
2017-03-13T03:25:01.949Z,996.61
2017-03-13T03:26:01.974Z,996.64
2017-03-13T03:27:02.003Z,996.62
2017-03-13T03:28:02.027Z,996.63
2017-03-13T03:29:02.056Z,996.63
2017-03-13T03:30:02.087Z,996.66
2017-03-13T03:31:02.108Z,996.66
2017-03-13T03:32:02.139Z,996.67
2017-03-13T03:33:02.167Z,996.68
2017-03-13T03:34:02.191Z,996.72
2017-03-13T03:35:02.221Z,996.7
2017-03-13T03:36:02.250Z,996.73
2017-03-13T03:37:02.270Z,996.7
2017-03-13T03:38:02.299Z,996.68
2017-03-13T03:39:02.325Z,996.72
2017-03-13T03:40:02.360Z,996.69
2017-03-13T03:41:02.386Z,996.72
2017-03-13T03:42:02.410Z,996.7
2017-03-13T03:43:02.438Z,996.69
2017-03-13T03:44:02.463Z,996.74
2017-03-13T03:45:02.493Z,996.78
2017-03-13T03:46:02.521Z,996.78
2017-03-13T03:47:02.545Z,996.82
2017-03-13T03:48:02.573Z,996.82
2017-03-13T03:49:02.598Z,996.89
2017-03-13T03:50:02.629Z,996.84
2017-03-13T03:51:02.658Z,996.88
2017-03-13T03:52:02.682Z,996.95
2017-03-13T03:53:02.710Z,996.93
2017-03-13T03:54:02.730Z,997
2017-03-13T03:55:02.758Z,997.02
2017-03-13T03:56:02.788Z,997.04
2017-03-13T03:57:02.817Z,997.03
2017-03-13T03:58:02.845Z,997.04
2017-03-13T03:59:02.870Z,997.05
2017-03-13T04:00:02.899Z,997.07
2017-03-13T04:01:02.924Z,997.06
2017-03-13T04:02:02.953Z,997.07
2017-03-13T04:03:03.232Z,997.07
2017-03-13T04:04:03.017Z,997.12
2017-03-13T04:05:03.050Z,997.12
2017-03-13T04:06:03.061Z,997.13
2017-03-13T04:07:03.089Z,997.14
2017-03-13T04:08:03.366Z,997.15
2017-03-13T04:09:03.140Z,997.15
2017-03-13T04:10:03.171Z,997.13
2017-03-13T04:11:03.195Z,997.17
2017-03-13T04:12:03.225Z,997.24
2017-03-13T04:13:03.500Z,997.21
2017-03-13T04:14:03.278Z,997.21
2017-03-13T04:15:03.302Z,997.22
2017-03-13T04:16:03.332Z,997.27
2017-03-13T04:17:03.360Z,997.27
2017-03-13T04:18:03.632Z,997.31
2017-03-13T04:19:03.415Z,997.3
2017-03-13T04:20:03.456Z,997.31
2017-03-13T04:21:03.467Z,997.32
2017-03-13T04:22:03.496Z,997.33
2017-03-13T04:23:03.771Z,997.35
2017-03-13T04:24:03.549Z,997.38
2017-03-13T04:25:03.578Z,997.38
2017-03-13T04:26:03.603Z,997.41
2017-03-13T04:27:03.631Z,997.44
2017-03-13T04:28:03.907Z,997.43
2017-03-13T04:29:03.681Z,997.46
2017-03-13T04:30:03.710Z,997.45
2017-03-13T04:31:03.739Z,997.46
2017-03-13T04:32:03.761Z,997.49
2017-03-13T04:33:03.791Z,997.47
2017-03-13T04:34:03.816Z,997.53
2017-03-13T04:35:03.851Z,997.58
2017-03-13T04:36:03.870Z,997.57
2017-03-13T04:37:03.899Z,997.58
2017-03-13T04:38:03.927Z,997.66
2017-03-13T04:39:03.953Z,997.66
2017-03-13T04:40:03.981Z,997.64
2017-03-13T04:41:04.001Z,997.66
2017-03-13T04:42:04.035Z,997.67
2017-03-13T04:43:04.066Z,997.69
2017-03-13T04:44:04.088Z,997.68
2017-03-13T04:45:04.116Z,997.72
2017-03-13T04:46:04.141Z,997.71
2017-03-13T04:47:04.169Z,997.7
2017-03-13T04:48:04.195Z,997.74
2017-03-13T04:49:04.224Z,997.73
2017-03-13T04:50:04.254Z,997.75
2017-03-13T04:51:04.281Z,997.77
2017-03-13T04:52:04.306Z,997.76
2017-03-13T04:53:04.331Z,997.78
2017-03-13T04:54:04.360Z,997.79
2017-03-13T04:55:04.385Z,997.82
2017-03-13T04:56:04.413Z,997.84
2017-03-13T04:57:04.437Z,997.85
2017-03-13T04:58:04.498Z,997.85
2017-03-13T04:59:04.490Z,997.88
2017-03-13T05:00:04.520Z,997.91
2017-03-13T05:01:04.548Z,997.92
2017-03-13T05:02:04.569Z,997.98
2017-03-13T05:03:04.602Z,997.95
2017-03-13T05:04:04.627Z,997.96
2017-03-13T05:05:04.656Z,997.94
2017-03-13T05:06:04.680Z,997.95
2017-03-13T05:07:04.705Z,997.97
2017-03-13T05:08:04.734Z,997.95
2017-03-13T05:09:04.764Z,997.98
2017-03-13T05:10:04.798Z,997.94
2017-03-13T05:11:04.816Z,997.96
2017-03-13T05:12:04.845Z,998.02
2017-03-13T05:13:04.870Z,998.03
2017-03-13T05:14:04.898Z,998.05
2017-03-13T05:15:04.923Z,998.05
2017-03-13T05:16:04.952Z,998.11
2017-03-13T05:17:04.977Z,998.12
2017-03-13T05:18:05.005Z,998.17
2017-03-13T05:19:05.034Z,998.17
2017-03-13T05:20:05.058Z,998.18
2017-03-13T05:21:05.088Z,998.2
2017-03-13T05:22:05.112Z,998.2
2017-03-13T05:23:05.141Z,998.2
2017-03-13T05:24:05.165Z,998.22
2017-03-13T05:25:05.195Z,998.19
2017-03-13T05:26:05.218Z,998.2
2017-03-13T05:27:05.248Z,998.24
2017-03-13T05:28:05.273Z,998.21
2017-03-13T05:29:05.302Z,998.23
2017-03-13T05:30:05.331Z,998.24
2017-03-13T05:31:05.354Z,998.27
2017-03-13T05:32:05.382Z,998.31
2017-03-13T05:33:05.404Z,998.29
2017-03-13T05:34:05.437Z,998.3
2017-03-13T05:35:05.463Z,998.33
2017-03-13T05:36:05.492Z,998.31
2017-03-13T05:37:05.516Z,998.3
2017-03-13T05:38:05.542Z,998.33
2017-03-13T05:39:05.573Z,998.38
2017-03-13T05:40:05.597Z,998.4
2017-03-13T05:41:05.627Z,998.37
2017-03-13T05:42:05.649Z,998.39
2017-03-13T05:43:05.679Z,998.37
2017-03-13T05:44:05.705Z,998.38
2017-03-13T05:45:05.733Z,998.42
2017-03-13T05:46:05.757Z,998.43
2017-03-13T05:47:05.776Z,998.44
2017-03-13T05:48:05.812Z,998.49
2017-03-13T05:49:05.840Z,998.5
2017-03-13T05:50:05.864Z,998.54
2017-03-13T05:51:05.894Z,998.58
2017-03-13T05:52:05.919Z,998.62
2017-03-13T05:53:05.947Z,998.65
2017-03-13T05:54:05.971Z,998.62
2017-03-13T05:55:06.002Z,998.64
2017-03-13T05:56:06.029Z,998.68
2017-03-13T05:57:06.054Z,998.69
2017-03-13T05:58:06.083Z,998.67
2017-03-13T05:59:06.107Z,998.7
2017-03-13T06:00:06.135Z,998.72
2017-03-13T06:01:06.162Z,998.72
2017-03-13T06:02:06.195Z,998.73
2017-03-13T06:03:06.219Z,998.73
2017-03-13T06:04:06.495Z,998.72
2017-03-13T06:05:06.273Z,998.78
2017-03-13T06:06:06.297Z,998.73
2017-03-13T06:07:06.325Z,998.76
2017-03-13T06:08:06.350Z,998.8
2017-03-13T06:09:06.630Z,998.8
2017-03-13T06:10:06.403Z,998.84
2017-03-13T06:11:06.433Z,998.83
2017-03-13T06:12:06.457Z,998.87
2017-03-13T06:13:06.485Z,998.87
2017-03-13T06:14:06.767Z,998.89
2017-03-13T06:15:06.540Z,998.91
2017-03-13T06:16:06.569Z,998.92
2017-03-13T06:17:06.594Z,998.92
2017-03-13T06:18:06.621Z,998.92
2017-03-13T06:19:06.895Z,998.93
2017-03-13T06:20:06.674Z,998.95
2017-03-13T06:21:06.705Z,998.95
2017-03-13T06:22:06.728Z,998.96
2017-03-13T06:23:06.757Z,998.93
2017-03-13T06:24:06.781Z,998.96
2017-03-13T06:25:06.816Z,998.94
2017-03-13T06:26:06.836Z,998.94
2017-03-13T06:27:06.869Z,998.94
2017-03-13T06:28:06.893Z,998.93
2017-03-13T06:29:06.915Z,998.96
2017-03-13T06:30:06.948Z,998.94
2017-03-13T06:31:06.972Z,999.02
2017-03-13T06:32:06.999Z,998.98
2017-03-13T06:33:07.030Z,998.99
2017-03-13T06:34:07.055Z,999.05
2017-03-13T06:35:07.084Z,999.04
2017-03-13T06:36:07.107Z,999.08
2017-03-13T06:37:07.136Z,999.08
2017-03-13T06:38:07.161Z,999.13
2017-03-13T06:39:07.190Z,999.16
2017-03-13T06:40:07.215Z,999.15
2017-03-13T06:41:07.244Z,999.19
2017-03-13T06:42:07.271Z,999.21
2017-03-13T06:43:07.301Z,999.23
2017-03-13T06:44:07.327Z,999.3
2017-03-13T06:45:07.354Z,999.29
2017-03-13T06:46:07.383Z,999.35
2017-03-13T06:47:07.408Z,999.35
2017-03-13T06:48:07.441Z,999.35
2017-03-13T06:49:07.461Z,999.37
2017-03-13T06:50:07.490Z,999.39
2017-03-13T06:51:07.520Z,999.42
2017-03-13T06:52:07.544Z,999.52
2017-03-13T06:53:07.571Z,999.54
2017-03-13T06:54:07.601Z,999.54
2017-03-13T06:55:07.622Z,999.53
2017-03-13T06:56:07.655Z,999.57
2017-03-13T06:57:07.680Z,999.58
2017-03-13T06:58:07.708Z,999.56
2017-03-13T06:59:07.736Z,999.6
2017-03-13T07:00:07.758Z,999.63
2017-03-13T07:01:07.790Z,999.66
2017-03-13T07:02:07.820Z,999.65
2017-03-13T07:03:07.844Z,999.67
2017-03-13T07:04:07.873Z,999.65
2017-03-13T07:05:07.904Z,999.69
2017-03-13T07:06:07.926Z,999.7
2017-03-13T07:07:07.955Z,999.72
2017-03-13T07:08:07.979Z,999.72
2017-03-13T07:09:08.009Z,999.7
2017-03-13T07:10:08.037Z,999.72
2017-03-13T07:11:08.063Z,999.72
2017-03-13T07:12:08.091Z,999.8
2017-03-13T07:13:08.349Z,999.8
2017-03-13T07:14:08.140Z,999.94
2017-03-13T07:15:08.173Z,999.97
2017-03-13T07:16:08.201Z,1000.08
2017-03-13T07:17:08.226Z,1000.09
2017-03-13T07:18:08.257Z,1000.08
2017-03-13T07:19:08.283Z,1000.11
2017-03-13T07:20:08.313Z,1000.16
2017-03-13T07:21:08.336Z,1000.18
2017-03-13T07:22:08.368Z,1000.23
2017-03-13T07:23:08.397Z,1000.21
2017-03-13T07:24:08.424Z,1000.18
2017-03-13T07:25:08.701Z,1000.21
2017-03-13T07:26:08.707Z,1000.2
2017-03-13T07:27:08.505Z,1000.21
2017-03-13T07:28:08.758Z,1000.09
2017-03-13T07:29:08.564Z,1000.1
2017-03-13T07:30:08.845Z,1000.12
2017-03-13T07:31:08.621Z,1000.13
2017-03-13T07:32:08.646Z,1000.2
2017-03-13T07:33:08.707Z,1000.18
2017-03-13T07:34:08.700Z,1000.16
2017-03-13T07:35:08.985Z,1000.15
2017-03-13T07:36:08.761Z,1000.13
2017-03-13T07:37:08.791Z,1000.12
2017-03-13T07:38:08.820Z,1000.17
2017-03-13T07:39:08.846Z,1000.16
2017-03-13T07:40:09.128Z,1000.11
2017-03-13T07:41:08.910Z,1000.1
2017-03-13T07:42:08.938Z,1000.09
2017-03-13T07:43:08.962Z,1000.12
2017-03-13T07:44:08.995Z,1000.15
2017-03-13T07:45:09.273Z,1000.14
2017-03-13T07:46:09.052Z,1000.16
2017-03-13T07:47:09.081Z,1000.17
2017-03-13T07:48:09.110Z,1000.23
2017-03-13T07:49:09.136Z,1000.24
2017-03-13T07:50:09.419Z,1000.33
2017-03-13T07:51:09.197Z,1000.39
2017-03-13T07:52:09.225Z,1000.44
2017-03-13T07:53:09.254Z,1000.43
2017-03-13T07:54:09.278Z,1000.39
2017-03-13T07:55:09.563Z,1000.38
2017-03-13T07:56:09.340Z,1000.38
2017-03-13T07:57:09.364Z,1000.34
2017-03-13T07:58:09.392Z,1000.34
2017-03-13T07:59:09.418Z,1000.3
2017-03-13T08:00:09.702Z,1000.31
2017-03-13T08:01:09.480Z,1000.3
2017-03-13T08:02:09.509Z,1000.28
2017-03-13T08:03:09.537Z,1000.35
2017-03-13T08:04:09.565Z,1000.34
2017-03-13T08:05:09.845Z,1000.33
2017-03-13T08:06:09.627Z,1000.38
2017-03-13T08:07:09.649Z,1000.43
2017-03-13T08:08:09.681Z,1000.44
2017-03-13T08:09:09.709Z,1000.41
2017-03-13T08:10:09.990Z,1000.42
2017-03-13T08:11:09.767Z,1000.45
2017-03-13T08:12:09.793Z,1000.42
2017-03-13T08:13:09.821Z,1000.45
2017-03-13T08:14:09.851Z,1000.44
2017-03-13T08:15:09.878Z,1000.45
2017-03-13T08:16:09.907Z,1000.46
2017-03-13T08:17:09.940Z,1000.44
2017-03-13T08:18:09.964Z,1000.43
2017-03-13T08:19:09.993Z,1000.43
2017-03-13T08:20:10.018Z,1000.43
2017-03-13T08:21:10.051Z,1000.43
2017-03-13T08:22:10.075Z,1000.44
2017-03-13T08:23:10.100Z,1000.43
2017-03-13T08:24:10.133Z,1000.41
2017-03-13T08:25:10.162Z,1000.45
2017-03-13T08:26:10.190Z,1000.42
2017-03-13T08:27:10.215Z,1000.52
2017-03-13T08:28:10.248Z,1000.49
2017-03-13T08:29:10.272Z,1000.47
2017-03-13T08:30:10.301Z,1000.5
2017-03-13T08:31:10.334Z,1000.46
2017-03-13T08:32:10.364Z,1000.49
2017-03-13T08:33:10.386Z,1000.48
2017-03-13T08:34:10.412Z,1000.47
2017-03-13T08:35:10.446Z,1000.48
2017-03-13T08:36:10.470Z,1000.5
2017-03-13T08:37:10.499Z,1000.52
2017-03-13T08:38:10.528Z,1000.56
2017-03-13T08:39:10.557Z,1000.58
2017-03-13T08:40:10.585Z,1000.58
2017-03-13T08:41:10.609Z,1000.63
2017-03-13T08:42:10.635Z,1000.61
2017-03-13T08:43:10.667Z,1000.59
2017-03-13T08:44:10.701Z,1000.6
2017-03-13T08:45:10.725Z,1000.65
2017-03-13T08:46:10.749Z,1000.67
2017-03-13T08:47:10.778Z,1000.71
2017-03-13T08:48:10.807Z,1000.71
2017-03-13T08:49:10.837Z,1000.78
2017-03-13T08:50:10.861Z,1000.72
2017-03-13T08:51:10.892Z,1000.82
2017-03-13T08:52:10.918Z,1000.81
2017-03-13T08:53:10.943Z,1000.82
2017-03-13T08:54:10.975Z,1000.76
2017-03-13T08:55:11.003Z,1000.75
2017-03-13T08:56:11.033Z,1000.72
2017-03-13T08:57:11.063Z,1000.69
2017-03-13T08:58:11.087Z,1000.66
2017-03-13T08:59:11.115Z,1000.69
2017-03-13T09:00:11.141Z,1000.73
2017-03-13T09:01:11.173Z,1000.68
2017-03-13T09:02:11.201Z,1000.72
2017-03-13T09:03:11.231Z,1000.74
2017-03-13T09:04:11.260Z,1000.75
2017-03-13T09:05:11.280Z,1000.78
2017-03-13T09:06:11.313Z,1000.73
2017-03-13T09:07:11.337Z,1000.8
2017-03-13T09:08:11.370Z,1000.79
2017-03-13T09:09:11.403Z,1000.8
2017-03-13T09:10:11.429Z,1000.85
2017-03-13T09:11:11.458Z,1000.84
2017-03-13T09:12:11.486Z,1000.87
2017-03-13T09:13:11.514Z,1000.88
2017-03-13T09:14:11.543Z,1000.89
2017-03-13T09:15:11.570Z,1000.9
2017-03-13T09:16:11.856Z,1000.91
2017-03-13T09:17:11.629Z,1000.89
2017-03-13T09:18:11.653Z,1000.89
2017-03-13T09:19:11.682Z,1000.91
2017-03-13T09:20:11.711Z,1000.93
2017-03-13T09:21:11.991Z,1000.98
2017-03-13T09:22:11.767Z,1000.98
2017-03-13T09:23:11.797Z,1001.03
2017-03-13T09:24:11.826Z,1000.97
2017-03-13T09:25:11.855Z,1001.02
2017-03-13T09:26:11.882Z,1001.02
2017-03-13T09:27:11.912Z,1000.98
2017-03-13T09:28:11.941Z,1000.97
2017-03-13T09:29:11.969Z,1001
2017-03-13T09:30:11.998Z,1000.99
2017-03-13T09:31:12.026Z,1001.01
2017-03-13T09:32:12.056Z,1000.98
2017-03-13T09:33:12.092Z,1000.98
2017-03-13T09:34:12.109Z,1000.95
2017-03-13T09:35:12.139Z,1000.98
2017-03-13T09:36:12.167Z,1000.99
2017-03-13T09:37:12.196Z,1000.96
2017-03-13T09:38:12.225Z,1000.98
2017-03-13T09:39:12.254Z,1000.98
2017-03-13T09:40:12.283Z,1000.98
2017-03-13T09:41:12.312Z,1001.05
2017-03-13T09:42:12.339Z,1001.04
2017-03-13T09:43:12.367Z,1001.07
2017-03-13T09:44:12.397Z,1001.07
2017-03-13T09:45:12.422Z,1001.08
2017-03-13T09:46:12.454Z,1001.11
2017-03-13T09:47:12.479Z,1001.16
2017-03-13T09:48:12.516Z,1001.16
2017-03-13T09:49:12.534Z,1001.22
2017-03-13T09:50:12.562Z,1001.23
2017-03-13T09:51:12.594Z,1001.18
2017-03-13T09:52:12.623Z,1001.26
2017-03-13T09:53:12.663Z,1001.19
2017-03-13T09:54:12.680Z,1001.18
2017-03-13T09:55:12.705Z,1001.17
2017-03-13T09:56:12.738Z,1001.18
2017-03-13T09:57:12.767Z,1001.19
2017-03-13T09:58:12.795Z,1001.18
2017-03-13T09:59:12.824Z,1001.22
2017-03-13T10:00:12.853Z,1001.23
2017-03-13T10:01:12.881Z,1001.27
2017-03-13T10:02:12.907Z,1001.32
2017-03-13T10:03:12.935Z,1001.38
2017-03-13T10:04:12.964Z,1001.35
2017-03-13T10:05:12.991Z,1001.35
2017-03-13T10:06:13.023Z,1001.34
2017-03-13T10:07:13.055Z,1001.35
2017-03-13T10:08:13.078Z,1001.3
2017-03-13T10:09:13.107Z,1001.36
2017-03-13T10:10:13.132Z,1001.34
2017-03-13T10:11:13.165Z,1001.38
2017-03-13T10:12:13.442Z,1001.42
2017-03-13T10:13:13.219Z,1001.46
2017-03-13T10:14:13.244Z,1001.5
2017-03-13T10:15:13.279Z,1001.48
2017-03-13T10:16:13.305Z,1001.47
2017-03-13T10:17:13.583Z,1001.49
2017-03-13T10:18:13.366Z,1001.53
2017-03-13T10:19:13.389Z,1001.48
2017-03-13T10:20:13.420Z,1001.47
2017-03-13T10:21:13.449Z,1001.44
2017-03-13T10:22:13.728Z,1001.49
2017-03-13T10:23:13.506Z,1001.49
2017-03-13T10:24:13.527Z,1001.53
2017-03-13T10:25:13.560Z,1001.55
2017-03-13T10:26:13.589Z,1001.56
2017-03-13T10:27:13.868Z,1001.53
2017-03-13T10:28:13.646Z,1001.58
2017-03-13T10:29:13.675Z,1001.58
2017-03-13T10:30:13.704Z,1001.57
2017-03-13T10:31:13.732Z,1001.61
2017-03-13T10:32:14.013Z,1001.61
2017-03-13T10:33:13.789Z,1001.62
2017-03-13T10:34:13.819Z,1001.62
2017-03-13T10:35:13.848Z,1001.64
2017-03-13T10:36:13.875Z,1001.65
2017-03-13T10:37:13.902Z,1001.67
2017-03-13T10:38:13.930Z,1001.69
2017-03-13T10:39:13.962Z,1001.72
2017-03-13T10:40:13.992Z,1001.7
2017-03-13T10:41:14.017Z,1001.7
2017-03-13T10:42:14.044Z,1001.71
2017-03-13T10:43:14.073Z,1001.75
2017-03-13T10:44:14.102Z,1001.74
2017-03-13T10:45:14.133Z,1001.73
2017-03-13T10:46:14.159Z,1001.8
2017-03-13T10:47:14.188Z,1001.8
2017-03-13T10:48:14.217Z,1001.86
2017-03-13T10:49:14.245Z,1001.86
2017-03-13T10:50:14.274Z,1001.88
2017-03-13T10:51:14.303Z,1001.94
2017-03-13T10:52:14.328Z,1001.9
2017-03-13T10:53:14.361Z,1001.98
2017-03-13T10:54:14.389Z,1001.97
2017-03-13T10:55:14.418Z,1001.96
2017-03-13T10:56:14.447Z,1002
2017-03-13T10:57:14.472Z,1001.99
2017-03-13T10:58:14.524Z,1001.96
2017-03-13T10:59:14.533Z,1001.95
2017-03-13T11:00:14.562Z,1001.96
2017-03-13T11:01:14.591Z,1002
2017-03-13T11:02:14.642Z,1001.99
2017-03-13T11:03:14.647Z,1001.99
2017-03-13T11:04:14.677Z,1002.04
2017-03-13T11:05:14.706Z,1002.08
2017-03-13T11:06:14.734Z,1002.01
2017-03-13T11:07:14.764Z,1002.04
2017-03-13T11:08:14.792Z,1002.06
2017-03-13T11:09:14.820Z,1002.02
2017-03-13T11:10:14.849Z,1002.02
2017-03-13T11:11:14.878Z,1001.99
2017-03-13T11:12:14.906Z,1002
2017-03-13T11:13:14.935Z,1001.97
2017-03-13T11:14:14.964Z,1001.99
2017-03-13T11:15:14.993Z,1001.94
2017-03-13T11:16:15.017Z,1001.95
2017-03-13T11:17:15.051Z,1001.97
2017-03-13T11:18:15.083Z,1002
2017-03-13T11:19:15.109Z,1002.02
2017-03-13T11:20:15.137Z,1002.03
2017-03-13T11:21:15.170Z,1002.03
2017-03-13T11:22:15.194Z,1002.01
2017-03-13T11:23:15.228Z,1002
2017-03-13T11:24:15.256Z,1001.99
2017-03-13T11:25:15.285Z,1001.95
2017-03-13T11:26:15.313Z,1001.9
2017-03-13T11:27:15.344Z,1001.91
2017-03-13T11:28:15.370Z,1001.92
2017-03-13T11:29:15.400Z,1001.95
2017-03-13T11:30:15.424Z,1001.93
2017-03-13T11:31:15.458Z,1001.92
2017-03-13T11:32:15.487Z,1001.9
2017-03-13T11:33:15.514Z,1001.83
2017-03-13T11:34:15.543Z,1001.84
2017-03-13T11:35:15.576Z,1001.83
2017-03-13T11:36:15.604Z,1001.87
2017-03-13T11:37:15.633Z,1001.96
2017-03-13T11:38:15.662Z,1002.01
2017-03-13T11:39:15.691Z,1002.09
2017-03-13T11:40:15.720Z,1002.11
2017-03-13T11:41:15.750Z,1002.14
2017-03-13T11:42:15.778Z,1002.12
2017-03-13T11:43:15.804Z,1002.09
2017-03-13T11:44:15.833Z,1002.05
2017-03-13T11:45:15.864Z,1002.04
2017-03-13T11:46:15.898Z,1002
2017-03-13T11:47:15.925Z,1002.02
2017-03-13T11:48:15.955Z,1002.03
2017-03-13T11:49:15.979Z,1001.99
2017-03-13T11:50:16.015Z,1001.89
2017-03-13T11:51:16.040Z,1001.88
2017-03-13T11:52:16.068Z,1001.92
2017-03-13T11:53:16.096Z,1001.98
2017-03-13T11:54:16.131Z,1002.01
2017-03-13T11:55:16.158Z,1001.95
2017-03-13T11:56:16.186Z,1001.92
2017-03-13T11:57:16.216Z,1001.86
2017-03-13T11:58:16.244Z,1001.86
2017-03-13T11:59:16.274Z,1001.9
2017-03-13T12:00:16.303Z,1001.98
2017-03-13T12:01:16.340Z,1001.99
2017-03-13T12:02:16.365Z,1002.03
2017-03-13T12:03:16.394Z,1002.14
2017-03-13T12:04:16.421Z,1002.15
2017-03-13T12:05:16.451Z,1002.02
2017-03-13T12:06:16.480Z,1002.01
2017-03-13T12:07:16.508Z,1002.11
2017-03-13T12:08:16.541Z,1002.05
2017-03-13T12:09:16.569Z,1002.03
2017-03-13T12:10:16.594Z,1002.01
2017-03-13T12:11:16.631Z,1002.08
2017-03-13T12:12:16.661Z,1001.87
2017-03-13T12:13:16.692Z,1001.99
2017-03-13T12:14:16.722Z,1002.15
2017-03-13T12:15:16.752Z,1002.28
2017-03-13T12:16:16.779Z,1002.34
2017-03-13T12:17:16.812Z,1002.34
2017-03-13T12:18:16.841Z,1002.24
2017-03-13T12:19:16.869Z,1002.22
2017-03-13T12:20:16.906Z,1002.14
2017-03-13T12:21:16.931Z,1002.16
2017-03-13T12:22:16.964Z,1002.25